sensor_id;sensor_type;location;lat;lon;timestamp;pressure;altitude;pressure_sealevel;temperature;humidity
13690;BME280;6917;52.194;9.894;2023-02-14T00:01:49;102411.16;;;1.91;100.00
13690;BME280;6917;52.194;9.894;2023-02-14T00:04:15;102404.94;;;1.97;100.00
13690;BME280;6917;52.194;9.894;2023-02-14T00:06:41;102401.22;;;1.98;100.00
13690;BME280;6917;52.194;9.894;2023-02-14T00:09:10;102409.91;;;2.00;100.00
13690;BME280;6917;52.194;9.894;2023-02-14T00:11:36;102411.56;;;2.01;100.00
13690;BME280;6917;52.194;9.894;2023-02-14T00:14:02;102412.81;;;1.98;100.00
13690;BME280;6917;52.194;9.894;2023-02-14T00:16:46;102414.06;;;1.89;100.00
13690;BME280;6917;52.194;9.894;2023-02-14T00:19:13;102415.72;;;1.90;100.00
13690;BME280;6917;52.194;9.894;2023-02-14T00:21:39;102409.91;;;1.87;100.00
13690;BME280;6917;52.194;9.894;2023-02-14T00:24:07;102409.28;;;1.85;100.00
13690;BME280;6917;52.194;9.894;2023-02-14T00:26:32;102405.34;;;1.81;100.00
13690;BME280;6917;52.194;9.894;2023-02-14T00:28:58;102401.19;;;1.85;100.00
13690;BME280;6917;52.194;9.894;2023-02-14T00:31:23;102409.50;;;1.90;100.00
13690;BME280;6917;52.194;9.894;2023-02-14T00:33:48;102401.63;;;1.88;100.00
13690;BME280;6917;52.194;9.894;2023-02-14T00:36:14;102405.56;;;1.92;100.00
13690;BME280;6917;52.194;9.894;2023-02-14T00:38:41;102403.28;;;1.89;100.00
13690;BME280;6917;52.194;9.894;2023-02-14T00:41:06;102402.03;;;1.92;100.00
13690;BME280;6917;52.194;9.894;2023-02-14T00:43:32;102404.31;;;1.88;100.00
13690;BME280;6917;52.194;9.894;2023-02-14T00:45:57;102409.69;;;1.82;100.00
13690;BME280;6917;52.194;9.894;2023-02-14T00:48:22;102415.06;;;1.82;100.00
13690;BME280;6917;52.194;9.894;2023-02-14T00:50:47;102418.41;;;1.84;100.00
13690;BME280;6917;52.194;9.894;2023-02-14T00:53:13;102417.75;;;1.68;100.00
13690;BME280;6917;52.194;9.894;2023-02-14T00:55:38;102414.22;;;1.68;100.00
13690;BME280;6917;52.194;9.894;2023-02-14T00:58:04;102411.53;;;1.68;100.00
13690;BME280;6917;52.194;9.894;2023-02-14T01:00:29;102416.09;;;1.61;100.00
13690;BME280;6917;52.194;9.894;2023-02-14T01:02:55;102411.53;;;1.61;100.00
13690;BME280;6917;52.194;9.894;2023-02-14T01:05:20;102414.22;;;1.61;100.00
13690;BME280;6917;52.194;9.894;2023-02-14T01:07:45;102408.22;;;1.66;100.00
13690;BME280;6917;52.194;9.894;2023-02-14T01:10:11;102410.28;;;1.70;100.00
13690;BME280;6917;52.194;9.894;2023-02-14T01:12:36;102411.09;;;1.71;100.00
13690;BME280;6917;52.194;9.894;2023-02-14T01:15:01;102407.00;;;1.75;100.00
13690;BME280;6917;52.194;9.894;2023-02-14T01:17:26;102409.47;;;1.76;100.00
13690;BME280;6917;52.194;9.894;2023-02-14T01:19:52;102406.56;;;1.85;100.00
13690;BME280;6917;52.194;9.894;2023-02-14T01:22:18;102409.47;;;1.83;100.00
13690;BME280;6917;52.194;9.894;2023-02-14T01:24:43;102398.09;;;1.74;100.00
13690;BME280;6917;52.194;9.894;2023-02-14T01:27:08;102407.59;;;1.70;100.00
13690;BME280;6917;52.194;9.894;2023-02-14T01:29:34;102407.00;;;1.75;100.00
13690;BME280;6917;52.194;9.894;2023-02-14T01:31:59;102400.78;;;1.88;100.00
13690;BME280;6917;52.194;9.894;2023-02-14T01:34:24;102407.00;;;1.82;100.00
13690;BME280;6917;52.194;9.894;2023-02-14T01:36:50;102413.63;;;1.86;100.00
13690;BME280;6917;52.194;9.894;2023-02-14T01:39:15;102413.03;;;1.90;100.00
13690;BME280;6917;52.194;9.894;2023-02-14T01:41:43;102423.19;;;1.95;100.00
13690;BME280;6917;52.194;9.894;2023-02-14T01:46:42;102415.31;;;1.93;100.00
13690;BME280;6917;52.194;9.894;2023-02-14T01:49:20;102414.06;;;2.02;100.00
13690;BME280;6917;52.194;9.894;2023-02-14T01:54:26;102415.94;;;1.89;100.00
13690;BME280;6917;52.194;9.894;2023-02-14T01:56:56;102412.59;;;1.80;100.00
13690;BME280;6917;52.194;9.894;2023-02-14T01:59:27;102408.22;;;1.72;100.00
13690;BME280;6917;52.194;9.894;2023-02-14T02:01:54;102408.84;;;1.81;100.00
13690;BME280;6917;52.194;9.894;2023-02-14T02:04:23;102410.31;;;1.77;100.00
13690;BME280;6917;52.194;9.894;2023-02-14T02:06:53;102402.84;;;1.86;100.00
13690;BME280;6917;52.194;9.894;2023-02-14T02:11:57;102406.63;;;2.04;100.00
13690;BME280;6917;52.194;9.894;2023-02-14T02:14:22;102403.28;;;2.02;100.00
13690;BME280;6917;52.194;9.894;2023-02-14T02:17:21;102397.72;;;2.04;100.00
13690;BME280;6917;52.194;9.894;2023-02-14T02:20:27;102393.53;;;2.01;100.00
13690;BME280;6917;52.194;9.894;2023-02-14T02:26:12;102386.28;;;2.08;100.00
13690;BME280;6917;52.194;9.894;2023-02-14T02:29:07;102382.97;;;2.00;100.00
13690;BME280;6917;52.194;9.894;2023-02-14T02:37:17;102372.78;;;2.02;100.00
13690;BME280;6917;52.194;9.894;2023-02-14T02:48:09;102359.75;;;2.05;100.00
13690;BME280;6917;52.194;9.894;2023-02-14T02:50:45;102356.03;;;2.06;100.00
13690;BME280;6917;52.194;9.894;2023-02-14T02:53:42;102366.41;;;2.03;100.00
13690;BME280;6917;52.194;9.894;2023-02-14T02:56:18;102359.75;;;1.92;100.00
13690;BME280;6917;52.194;9.894;2023-02-14T02:59:09;102361.59;;;1.78;100.00
13690;BME280;6917;52.194;9.894;2023-02-14T03:01:45;102357.66;;;1.61;100.00
13690;BME280;6917;52.194;9.894;2023-02-14T03:04:12;102355.78;;;1.68;100.00
13690;BME280;6917;52.194;9.894;2023-02-14T03:06:58;102351.84;;;1.71;100.00
13690;BME280;6917;52.194;9.894;2023-02-14T03:12:22;102350.91;;;1.24;100.00
13690;BME280;6917;52.194;9.894;2023-02-14T03:17:44;102351.63;;;0.92;100.00
13690;BME280;6917;52.194;9.894;2023-02-14T03:20:20;102353.06;;;0.87;100.00
13690;BME280;6917;52.194;9.894;2023-02-14T03:23:16;102366.41;;;0.68;100.00
13690;BME280;6917;52.194;9.894;2023-02-14T03:31:21;102350.88;;;0.35;100.00
13690;BME280;6917;52.194;9.894;2023-02-14T03:33:55;102346.69;;;0.26;100.00
13690;BME280;6917;52.194;9.894;2023-02-14T03:39:08;102349.81;;;0.02;100.00
13690;BME280;6917;52.194;9.894;2023-02-14T03:41:40;102341.75;;;0.02;100.00
13690;BME280;6917;52.194;9.894;2023-02-14T03:44:08;102347.25;;;-0.07;100.00
13690;BME280;6917;52.194;9.894;2023-02-14T03:46:40;102343.31;;;-0.11;100.00
13690;BME280;6917;52.194;9.894;2023-02-14T03:49:13;102336.72;;;-0.08;100.00
13690;BME280;6917;52.194;9.894;2023-02-14T03:51:40;102333.84;;;-0.07;100.00
13690;BME280;6917;52.194;9.894;2023-02-14T03:54:09;102339.84;;;-0.05;100.00
13690;BME280;6917;52.194;9.894;2023-02-14T03:56:40;102342.78;;;0.01;100.00
13690;BME280;6917;52.194;9.894;2023-02-14T03:59:19;102341.41;;;0.11;100.00
13690;BME280;6917;52.194;9.894;2023-02-14T04:04:17;102332.81;;;-0.06;100.00
13690;BME280;6917;52.194;9.894;2023-02-14T04:06:44;102331.16;;;-0.07;100.00
13690;BME280;6917;52.194;9.894;2023-02-14T04:09:09;102332.50;;;-0.17;100.00
13690;BME280;6917;52.194;9.894;2023-02-14T04:11:34;102332.66;;;-0.25;100.00
13690;BME280;6917;52.194;9.894;2023-02-14T04:14:03;102341.34;;;-0.23;100.00
13690;BME280;6917;52.194;9.894;2023-02-14T04:16:28;102336.28;;;-0.33;100.00
13690;BME280;6917;52.194;9.894;2023-02-14T04:18:54;102332.09;;;-0.42;100.00
13690;BME280;6917;52.194;9.894;2023-02-14T04:21:38;102328.88;;;-0.52;100.00
13690;BME280;6917;52.194;9.894;2023-02-14T04:24:03;102329.81;;;-0.60;100.00
13690;BME280;6917;52.194;9.894;2023-02-14T04:26:29;102326.00;;;-0.51;100.00
13690;BME280;6917;52.194;9.894;2023-02-14T04:28:54;102322.91;;;-0.48;100.00
13690;BME280;6917;52.194;9.894;2023-02-14T04:31:19;102338.34;;;-0.35;100.00
13690;BME280;6917;52.194;9.894;2023-02-14T04:33:44;102326.44;;;-0.26;100.00
13690;BME280;6917;52.194;9.894;2023-02-14T04:36:12;102322.63;;;-0.38;100.00
13690;BME280;6917;52.194;9.894;2023-02-14T04:38:37;102326.88;;;-0.44;100.00
13690;BME280;6917;52.194;9.894;2023-02-14T04:41:03;102336.22;;;-0.40;100.00
13690;BME280;6917;52.194;9.894;2023-02-14T04:43:28;102334.69;;;-0.27;100.00
13690;BME280;6917;52.194;9.894;2023-02-14T04:45:53;102328.75;;;-0.23;100.00
13690;BME280;6917;52.194;9.894;2023-02-14T04:48:19;102330.63;;;-0.17;100.00
13690;BME280;6917;52.194;9.894;2023-02-14T04:50:44;102327.19;;;-0.11;100.00
13690;BME280;6917;52.194;9.894;2023-02-14T04:53:14;102338.19;;;-0.06;100.00
13690;BME280;6917;52.194;9.894;2023-02-14T04:55:40;102320.00;;;-0.04;100.00
13690;BME280;6917;52.194;9.894;2023-02-14T04:58:05;102332.88;;;0.01;100.00
13690;BME280;6917;52.194;9.894;2023-02-14T05:00:30;102330.63;;;0.05;100.00
13690;BME280;6917;52.194;9.894;2023-02-14T05:02:55;102322.88;;;-0.05;100.00
13690;BME280;6917;52.194;9.894;2023-02-14T05:05:21;102320.69;;;-0.23;100.00
13690;BME280;6917;52.194;9.894;2023-02-14T05:07:46;102321.06;;;-0.69;100.00
13690;BME280;6917;52.194;9.894;2023-02-14T05:10:12;102319.47;;;-0.63;100.00
13690;BME280;6917;52.194;9.894;2023-02-14T05:12:37;102316.19;;;-0.80;100.00
13690;BME280;6917;52.194;9.894;2023-02-14T05:15:03;102315.38;;;-1.31;100.00
13690;BME280;6917;52.194;9.894;2023-02-14T05:17:28;102308.47;;;-1.40;100.00
13690;BME280;6917;52.194;9.894;2023-02-14T05:19:53;102307.31;;;-1.31;100.00
13690;BME280;6917;52.194;9.894;2023-02-14T05:22:19;102310.19;;;-1.33;100.00
13690;BME280;6917;52.194;9.894;2023-02-14T05:24:44;102304.31;;;-1.28;100.00
13690;BME280;6917;52.194;9.894;2023-02-14T05:27:09;102298.16;;;-1.07;100.00
13690;BME280;6917;52.194;9.894;2023-02-14T05:29:36;102296.16;;;-0.84;100.00
13690;BME280;6917;52.194;9.894;2023-02-14T05:32:01;102304.88;;;-0.75;100.00
13690;BME280;6917;52.194;9.894;2023-02-14T05:34:26;102299.09;;;-0.79;100.00
13690;BME280;6917;52.194;9.894;2023-02-14T05:36:51;102301.00;;;-0.73;100.00
13690;BME280;6917;52.194;9.894;2023-02-14T05:39:19;102307.22;;;-0.72;100.00
13690;BME280;6917;52.194;9.894;2023-02-14T05:41:44;102305.38;;;-0.72;100.00
13690;BME280;6917;52.194;9.894;2023-02-14T05:44:09;102301.56;;;-0.77;100.00
13690;BME280;6917;52.194;9.894;2023-02-14T05:46:34;102298.78;;;-0.69;100.00
13690;BME280;6917;52.194;9.894;2023-02-14T05:49:00;102316.78;;;-0.63;100.00
13690;BME280;6917;52.194;9.894;2023-02-14T05:51:25;102309.72;;;-0.71;100.00
13690;BME280;6917;52.194;9.894;2023-02-14T05:53:50;102313.47;;;-0.86;100.00
13690;BME280;6917;52.194;9.894;2023-02-14T05:56:16;102310.94;;;-0.88;100.00
13690;BME280;6917;52.194;9.894;2023-02-14T05:58:42;102307.72;;;-0.83;100.00
13690;BME280;6917;52.194;9.894;2023-02-14T06:01:08;102311.91;;;-0.96;100.00
13690;BME280;6917;52.194;9.894;2023-02-14T06:03:33;102314.97;;;-0.99;100.00
13690;BME280;6917;52.194;9.894;2023-02-14T06:05:58;102319.13;;;-0.96;100.00
13690;BME280;6917;52.194;9.894;2023-02-14T06:08:24;102323.72;;;-0.90;100.00
13690;BME280;6917;52.194;9.894;2023-02-14T06:10:49;102323.91;;;-0.92;100.00
13690;BME280;6917;52.194;9.894;2023-02-14T06:13:14;102325.69;;;-0.99;100.00
13690;BME280;6917;52.194;9.894;2023-02-14T06:15:40;102326.97;;;-0.95;100.00
13690;BME280;6917;52.194;9.894;2023-02-14T06:18:05;102322.06;;;-0.91;100.00
13690;BME280;6917;52.194;9.894;2023-02-14T06:20:31;102320.13;;;-0.97;100.00
13690;BME280;6917;52.194;9.894;2023-02-14T06:22:56;102323.47;;;-0.95;100.00
13690;BME280;6917;52.194;9.894;2023-02-14T06:25:22;102311.81;;;-1.02;100.00
13690;BME280;6917;52.194;9.894;2023-02-14T06:27:48;102317.09;;;-1.09;100.00
13690;BME280;6917;52.194;9.894;2023-02-14T06:30:14;102315.19;;;-1.15;100.00
13690;BME280;6917;52.194;9.894;2023-02-14T06:32:39;102331.19;;;-1.22;100.00
13690;BME280;6917;52.194;9.894;2023-02-14T06:35:06;102321.94;;;-1.34;100.00
13690;BME280;6917;52.194;9.894;2023-02-14T06:37:32;102321.03;;;-1.41;100.00
13690;BME280;6917;52.194;9.894;2023-02-14T06:39:57;102325.09;;;-1.45;100.00
13690;BME280;6917;52.194;9.894;2023-02-14T06:42:22;102334.81;;;-1.44;100.00
13690;BME280;6917;52.194;9.894;2023-02-14T06:44:48;102328.78;;;-1.46;100.00
13690;BME280;6917;52.194;9.894;2023-02-14T06:47:13;102332.13;;;-1.44;100.00
13690;BME280;6917;52.194;9.894;2023-02-14T06:49:39;102328.06;;;-1.40;100.00
13690;BME280;6917;52.194;9.894;2023-02-14T06:52:04;102338.41;;;-1.37;100.00
13690;BME280;6917;52.194;9.894;2023-02-14T06:54:30;102324.25;;;-1.45;100.00
13690;BME280;6917;52.194;9.894;2023-02-14T06:56:55;102334.25;;;-1.39;100.00
13690;BME280;6917;52.194;9.894;2023-02-14T06:59:21;102335.34;;;-1.34;100.00
13690;BME280;6917;52.194;9.894;2023-02-14T07:01:46;102325.75;;;-1.28;100.00
13690;BME280;6917;52.194;9.894;2023-02-14T07:04:11;102335.84;;;-1.30;100.00
13690;BME280;6917;52.194;9.894;2023-02-14T07:06:37;102332.59;;;-1.26;100.00
13690;BME280;6917;52.194;9.894;2023-02-14T07:09:03;102336.53;;;-1.22;100.00
13690;BME280;6917;52.194;9.894;2023-02-14T07:11:28;102335.06;;;-1.24;100.00
13690;BME280;6917;52.194;9.894;2023-02-14T07:13:53;102337.38;;;-1.21;100.00
13690;BME280;6917;52.194;9.894;2023-02-14T07:16:19;102334.78;;;-1.14;100.00
13690;BME280;6917;52.194;9.894;2023-02-14T07:18:44;102340.50;;;-1.17;100.00
13690;BME280;6917;52.194;9.894;2023-02-14T07:21:09;102344.50;;;-1.13;100.00
13690;BME280;6917;52.194;9.894;2023-02-14T07:23:34;102339.66;;;-1.03;100.00
13690;BME280;6917;52.194;9.894;2023-02-14T07:26:00;102340.00;;;-0.92;100.00
13690;BME280;6917;52.194;9.894;2023-02-14T07:28:25;102339.75;;;-0.97;100.00
13690;BME280;6917;52.194;9.894;2023-02-14T07:30:51;102341.59;;;-0.97;100.00
13690;BME280;6917;52.194;9.894;2023-02-14T07:33:16;102331.75;;;-0.90;100.00
13690;BME280;6917;52.194;9.894;2023-02-14T07:35:41;102326.09;;;-0.80;100.00
13690;BME280;6917;52.194;9.894;2023-02-14T07:38:07;102324.16;;;-0.72;100.00
13690;BME280;6917;52.194;9.894;2023-02-14T07:40:32;102319.41;;;-0.70;100.00
13690;BME280;6917;52.194;9.894;2023-02-14T07:42:58;102322.78;;;-0.61;100.00
13690;BME280;6917;52.194;9.894;2023-02-14T07:45:25;102317.91;;;-0.57;100.00
13690;BME280;6917;52.194;9.894;2023-02-14T07:47:52;102319.34;;;-0.55;100.00
13690;BME280;6917;52.194;9.894;2023-02-14T07:50:19;102321.72;;;-0.45;100.00
13690;BME280;6917;52.194;9.894;2023-02-14T07:52:44;102325.94;;;-0.36;100.00
13690;BME280;6917;52.194;9.894;2023-02-14T07:55:10;102313.78;;;-0.32;100.00
13690;BME280;6917;52.194;9.894;2023-02-14T07:57:35;102311.72;;;-0.30;100.00
13690;BME280;6917;52.194;9.894;2023-02-14T08:00:02;102318.00;;;-0.23;100.00
13690;BME280;6917;52.194;9.894;2023-02-14T08:02:27;102316.38;;;-0.17;100.00
13690;BME280;6917;52.194;9.894;2023-02-14T08:04:53;102317.66;;;-0.13;100.00
13690;BME280;6917;52.194;9.894;2023-02-14T08:07:18;102315.44;;;-0.10;100.00
13690;BME280;6917;52.194;9.894;2023-02-14T08:09:43;102314.91;;;0.02;100.00
13690;BME280;6917;52.194;9.894;2023-02-14T08:12:09;102319.56;;;0.21;100.00
13690;BME280;6917;52.194;9.894;2023-02-14T08:14:53;102314.50;;;0.39;100.00
13690;BME280;6917;52.194;9.894;2023-02-14T08:17:18;102319.94;;;0.46;100.00
13690;BME280;6917;52.194;9.894;2023-02-14T08:19:44;102319.75;;;0.54;100.00
13690;BME280;6917;52.194;9.894;2023-02-14T08:22:09;102320.03;;;0.66;100.00
13690;BME280;6917;52.194;9.894;2023-02-14T08:24:34;102314.72;;;0.79;100.00
13690;BME280;6917;52.194;9.894;2023-02-14T08:27:00;102320.38;;;0.91;100.00
13690;BME280;6917;52.194;9.894;2023-02-14T08:29:25;102318.31;;;0.99;100.00
13690;BME280;6917;52.194;9.894;2023-02-14T08:31:51;102311.13;;;1.13;100.00
13690;BME280;6917;52.194;9.894;2023-02-14T08:34:17;102308.25;;;1.21;100.00
13690;BME280;6917;52.194;9.894;2023-02-14T08:36:42;102315.50;;;1.27;100.00
13690;BME280;6917;52.194;9.894;2023-02-14T08:39:08;102321.13;;;1.32;100.00
13690;BME280;6917;52.194;9.894;2023-02-14T08:41:34;102316.16;;;1.36;100.00
13690;BME280;6917;52.194;9.894;2023-02-14T08:44:00;102315.16;;;1.50;100.00
13690;BME280;6917;52.194;9.894;2023-02-14T08:46:26;102314.09;;;1.58;100.00
13690;BME280;6917;52.194;9.894;2023-02-14T08:48:52;102305.00;;;1.65;100.00
13690;BME280;6917;52.194;9.894;2023-02-14T08:51:19;102308.97;;;1.76;100.00
13690;BME280;6917;52.194;9.894;2023-02-14T08:53:44;102313.69;;;1.87;100.00
13690;BME280;6917;52.194;9.894;2023-02-14T08:56:12;102306.88;;;1.91;100.00
13690;BME280;6917;52.194;9.894;2023-02-14T08:58:38;102306.25;;;1.96;100.00
13690;BME280;6917;52.194;9.894;2023-02-14T09:01:12;102308.50;;;2.12;100.00
13690;BME280;6917;52.194;9.894;2023-02-14T09:03:37;102303.53;;;2.22;100.00
13690;BME280;6917;52.194;9.894;2023-02-14T09:06:07;102300.00;;;2.22;100.00
13690;BME280;6917;52.194;9.894;2023-02-14T09:08:34;102307.03;;;2.29;100.00
13690;BME280;6917;52.194;9.894;2023-02-14T09:11:12;102311.19;;;2.38;100.00
13690;BME280;6917;52.194;9.894;2023-02-14T09:13:38;102304.09;;;2.51;100.00
13690;BME280;6917;52.194;9.894;2023-02-14T09:16:05;102301.56;;;2.62;100.00
13690;BME280;6917;52.194;9.894;2023-02-14T09:18:31;102294.44;;;2.75;100.00
13690;BME280;6917;52.194;9.894;2023-02-14T09:20:57;102290.03;;;2.87;100.00
13690;BME280;6917;52.194;9.894;2023-02-14T09:23:22;102287.50;;;2.98;100.00
13690;BME280;6917;52.194;9.894;2023-02-14T09:25:47;102286.38;;;3.13;100.00
13690;BME280;6917;52.194;9.894;2023-02-14T09:28:13;102282.13;;;3.30;100.00
13690;BME280;6917;52.194;9.894;2023-02-14T09:30:38;102288.47;;;3.42;100.00
13690;BME280;6917;52.194;9.894;2023-02-14T09:33:03;102288.56;;;3.61;100.00
13690;BME280;6917;52.194;9.894;2023-02-14T09:35:29;102291.88;;;3.63;100.00
13690;BME280;6917;52.194;9.894;2023-02-14T09:38:01;102294.09;;;3.72;100.00
13690;BME280;6917;52.194;9.894;2023-02-14T09:40:26;102285.97;;;3.97;100.00
13690;BME280;6917;52.194;9.894;2023-02-14T09:42:59;102287.28;;;4.13;100.00
13690;BME280;6917;52.194;9.894;2023-02-14T09:45:28;102284.53;;;4.20;100.00
13690;BME280;6917;52.194;9.894;2023-02-14T09:48:00;102291.75;;;4.26;100.00
13690;BME280;6917;52.194;9.894;2023-02-14T09:56:00;102301.53;;;4.82;100.00
13690;BME280;6917;52.194;9.894;2023-02-14T09:58:32;102307.22;;;4.92;100.00
13690;BME280;6917;52.194;9.894;2023-02-14T10:01:06;102310.06;;;4.97;100.00
13690;BME280;6917;52.194;9.894;2023-02-14T10:03:46;102315.84;;;5.00;100.00
13690;BME280;6917;52.194;9.894;2023-02-14T10:09:05;102313.34;;;5.17;100.00
13690;BME280;6917;52.194;9.894;2023-02-14T10:11:36;102315.59;;;5.20;100.00
13690;BME280;6917;52.194;9.894;2023-02-14T10:14:07;102313.97;;;5.31;100.00
13690;BME280;6917;52.194;9.894;2023-02-14T10:19:21;102316.44;;;5.62;100.00
13690;BME280;6917;52.194;9.894;2023-02-14T10:21:54;102311.03;;;5.74;100.00
13690;BME280;6917;52.194;9.894;2023-02-14T10:24:30;102314.50;;;5.81;100.00
13690;BME280;6917;52.194;9.894;2023-02-14T10:27:27;102315.81;;;5.90;100.00
13690;BME280;6917;52.194;9.894;2023-02-14T10:29:53;102314.41;;;6.00;100.00
13690;BME280;6917;52.194;9.894;2023-02-14T10:32:27;102316.31;;;6.11;100.00
13690;BME280;6917;52.194;9.894;2023-02-14T10:34:56;102319.16;;;6.16;100.00
13690;BME280;6917;52.194;9.894;2023-02-14T10:37:57;102315.94;;;6.19;100.00
13690;BME280;6917;52.194;9.894;2023-02-14T10:40:38;102324.34;;;6.29;100.00
13690;BME280;6917;52.194;9.894;2023-02-14T10:43:21;102321.38;;;6.42;100.00
13690;BME280;6917;52.194;9.894;2023-02-14T10:45:52;102315.22;;;6.47;100.00
13690;BME280;6917;52.194;9.894;2023-02-14T10:56:55;102300.91;;;6.75;100.00
13690;BME280;6917;52.194;9.894;2023-02-14T10:59:49;102295.91;;;6.95;100.00
13690;BME280;6917;52.194;9.894;2023-02-14T11:02:15;102290.63;;;7.05;100.00
13690;BME280;6917;52.194;9.894;2023-02-14T11:04:41;102292.50;;;7.16;100.00
13690;BME280;6917;52.194;9.894;2023-02-14T11:07:16;102283.59;;;7.21;100.00
13690;BME280;6917;52.194;9.894;2023-02-14T11:09:42;102280.34;;;7.36;100.00
13690;BME280;6917;52.194;9.894;2023-02-14T11:12:08;102269.06;;;7.44;100.00
13690;BME280;6917;52.194;9.894;2023-02-14T11:14:36;102274.69;;;7.54;100.00
13690;BME280;6917;52.194;9.894;2023-02-14T11:17:25;102277.56;;;7.64;100.00
13690;BME280;6917;52.194;9.894;2023-02-14T11:20:00;102267.75;;;7.80;100.00
13690;BME280;6917;52.194;9.894;2023-02-14T11:22:31;102269.56;;;7.91;100.00
13690;BME280;6917;52.194;9.894;2023-02-14T11:25:33;102261.06;;;8.04;100.00
13690;BME280;6917;52.194;9.894;2023-02-14T11:28:06;102270.78;;;8.17;100.00
13690;BME280;6917;52.194;9.894;2023-02-14T11:30:40;102264.66;;;8.27;98.54
13690;BME280;6917;52.194;9.894;2023-02-14T11:33:12;102254.19;;;8.35;97.30
13690;BME280;6917;52.194;9.894;2023-02-14T11:35:49;102258.13;;;8.45;96.76
13690;BME280;6917;52.194;9.894;2023-02-14T11:38:32;102258.56;;;8.58;96.05
13690;BME280;6917;52.194;9.894;2023-02-14T11:41:00;102252.09;;;8.64;95.38
13690;BME280;6917;52.194;9.894;2023-02-14T11:43:31;102245.44;;;8.77;94.48
13690;BME280;6917;52.194;9.894;2023-02-14T11:46:09;102245.06;;;8.90;93.49
13690;BME280;6917;52.194;9.894;2023-02-14T11:48:37;102240.28;;;9.03;93.37
13690;BME280;6917;52.194;9.894;2023-02-14T11:51:04;102244.91;;;9.02;92.89
13690;BME280;6917;52.194;9.894;2023-02-14T11:53:46;102243.38;;;9.11;94.19
13690;BME280;6917;52.194;9.894;2023-02-14T11:56:17;102234.53;;;9.26;93.99
13690;BME280;6917;52.194;9.894;2023-02-14T12:01:12;102229.09;;;9.31;91.56
13690;BME280;6917;52.194;9.894;2023-02-14T12:03:46;102231.34;;;9.39;90.79
13690;BME280;6917;52.194;9.894;2023-02-14T12:06:22;102226.25;;;9.48;89.89
13690;BME280;6917;52.194;9.894;2023-02-14T12:08:48;102216.78;;;9.56;89.69
13690;BME280;6917;52.194;9.894;2023-02-14T12:11:20;102223.38;;;9.65;89.56
13690;BME280;6917;52.194;9.894;2023-02-14T12:13:54;102215.00;;;9.76;88.94
13690;BME280;6917;52.194;9.894;2023-02-14T12:16:34;102212.66;;;9.90;88.88
13690;BME280;6917;52.194;9.894;2023-02-14T12:19:05;102205.34;;;10.01;89.29
13690;BME280;6917;52.194;9.894;2023-02-14T12:24:17;102197.78;;;10.18;87.26
13690;BME280;6917;52.194;9.894;2023-02-14T12:27:05;102189.59;;;10.13;86.92
13690;BME280;6917;52.194;9.894;2023-02-14T12:29:35;102176.22;;;10.17;87.60
13690;BME280;6917;52.194;9.894;2023-02-14T12:32:12;102173.81;;;10.25;87.41
13690;BME280;6917;52.194;9.894;2023-02-14T12:34:39;102175.78;;;10.35;87.37
13690;BME280;6917;52.194;9.894;2023-02-14T12:37:18;102165.97;;;10.44;86.99
13690;BME280;6917;52.194;9.894;2023-02-14T12:42:32;102156.63;;;10.30;86.13
13690;BME280;6917;52.194;9.894;2023-02-14T12:45:23;102153.59;;;10.26;86.01
13690;BME280;6917;52.194;9.894;2023-02-14T12:48:22;102163.75;;;10.31;85.35
13690;BME280;6917;52.194;9.894;2023-02-14T12:51:25;102152.88;;;10.46;85.87
13690;BME280;6917;52.194;9.894;2023-02-14T12:57:03;102144.16;;;10.64;84.89
13690;BME280;6917;52.194;9.894;2023-02-14T13:05:57;102131.91;;;10.87;82.97
13690;BME280;6917;52.194;9.894;2023-02-14T13:08:38;102127.00;;;10.99;83.05
13690;BME280;6917;52.194;9.894;2023-02-14T13:11:22;102119.88;;;11.03;81.96
13690;BME280;6917;52.194;9.894;2023-02-14T13:16:40;102114.69;;;11.22;80.97
13690;BME280;6917;52.194;9.894;2023-02-14T13:19:26;102105.06;;;11.50;78.65
13690;BME280;6917;52.194;9.894;2023-02-14T13:21:55;102094.41;;;11.39;74.99
13690;BME280;6917;52.194;9.894;2023-02-14T13:24:24;102092.22;;;11.46;73.36
13690;BME280;6917;52.194;9.894;2023-02-14T13:26:55;102094.59;;;11.78;73.83
13690;BME280;6917;52.194;9.894;2023-02-14T13:29:24;102089.41;;;11.81;72.62
13690;BME280;6917;52.194;9.894;2023-02-14T13:31:58;102078.16;;;11.88;72.11
13690;BME280;6917;52.194;9.894;2023-02-14T13:34:33;102083.63;;;11.93;71.53
13690;BME280;6917;52.194;9.894;2023-02-14T13:37:02;102079.06;;;12.28;72.88
13690;BME280;6917;52.194;9.894;2023-02-14T13:39:35;102075.13;;;12.44;71.69
13690;BME280;6917;52.194;9.894;2023-02-14T13:42:02;102068.75;;;12.54;69.53
13690;BME280;6917;52.194;9.894;2023-02-14T13:44:48;102056.91;;;12.63;70.11
13690;BME280;6917;52.194;9.894;2023-02-14T13:47:17;102060.81;;;12.52;69.40
13690;BME280;6917;52.194;9.894;2023-02-14T13:49:50;102064.16;;;12.44;69.71
13690;BME280;6917;52.194;9.894;2023-02-14T13:55:07;102053.03;;;12.30;68.57
13690;BME280;6917;52.194;9.894;2023-02-14T13:57:35;102058.44;;;12.40;68.78
13690;BME280;6917;52.194;9.894;2023-02-14T14:02:54;102058.03;;;12.62;67.77
13690;BME280;6917;52.194;9.894;2023-02-14T14:10:47;102047.16;;;12.47;66.21
13690;BME280;6917;52.194;9.894;2023-02-14T14:16:26;102039.66;;;12.58;67.43
13690;BME280;6917;52.194;9.894;2023-02-14T14:21:44;102044.63;;;12.56;67.12
13690;BME280;6917;52.194;9.894;2023-02-14T14:24:28;102034.47;;;12.56;66.30
13690;BME280;6917;52.194;9.894;2023-02-14T14:31:54;102031.94;;;12.65;65.75
13690;BME280;6917;52.194;9.894;2023-02-14T14:34:21;102027.31;;;12.60;65.07
13690;BME280;6917;52.194;9.894;2023-02-14T14:36:49;102024.53;;;12.65;65.31
13690;BME280;6917;52.194;9.894;2023-02-14T14:39:26;102017.88;;;12.71;65.04
13690;BME280;6917;52.194;9.894;2023-02-14T14:41:51;102020.16;;;12.64;65.25
13690;BME280;6917;52.194;9.894;2023-02-14T14:44:17;102022.91;;;12.64;64.93
13690;BME280;6917;52.194;9.894;2023-02-14T14:46:43;102019.88;;;12.66;64.66
13690;BME280;6917;52.194;9.894;2023-02-14T14:49:09;102011.84;;;12.74;64.94
13690;BME280;6917;52.194;9.894;2023-02-14T14:51:36;102012.81;;;12.89;64.39
13690;BME280;6917;52.194;9.894;2023-02-14T14:56:30;102004.31;;;12.90;63.27